sensor_id;sensor_type;location;lat;lon;timestamp;P1;durP1;ratioP1;P2;durP2;ratioP2
56581;SDS011;42463;52.214;21.238;2022-07-17T00:01:27;4.90;;;2.50;;
56581;SDS011;42463;52.214;21.238;2022-07-17T00:04:00;4.70;;;2.80;;
56581;SDS011;42463;52.214;21.238;2022-07-17T00:06:27;4.40;;;2.50;;
56581;SDS011;42463;52.214;21.238;2022-07-17T00:08:53;4.00;;;2.30;;
56581;SDS011;42463;52.214;21.238;2022-07-17T00:11:19;4.40;;;2.10;;
56581;SDS011;42463;52.214;21.238;2022-07-17T00:13:46;4.00;;;2.40;;
56581;SDS011;42463;52.214;21.238;2022-07-17T00:16:12;4.40;;;2.20;;
56581;SDS011;42463;52.214;21.238;2022-07-17T00:21:33;6.10;;;2.40;;
56581;SDS011;42463;52.214;21.238;2022-07-17T00:23:59;3.60;;;2.40;;
56581;SDS011;42463;52.214;21.238;2022-07-17T00:26:25;2.80;;;2.20;;
56581;SDS011;42463;52.214;21.238;2022-07-17T00:28:54;5.30;;;2.70;;
56581;SDS011;42463;52.214;21.238;2022-07-17T00:31:21;4.10;;;2.30;;
56581;SDS011;42463;52.214;21.238;2022-07-17T00:33:47;3.90;;;2.30;;
56581;SDS011;42463;52.214;21.238;2022-07-17T00:36:13;7.00;;;2.70;;
56581;SDS011;42463;52.214;21.238;2022-07-17T00:38:39;4.30;;;2.20;;
56581;SDS011;42463;52.214;21.238;2022-07-17T00:41:09;9.30;;;2.20;;
56581;SDS011;42463;52.214;21.238;2022-07-17T00:43:37;4.90;;;2.30;;
56581;SDS011;42463;52.214;21.238;2022-07-17T00:46:08;6.50;;;2.00;;
56581;SDS011;42463;52.214;21.238;2022-07-17T00:48:35;4.80;;;2.20;;
56581;SDS011;42463;52.214;21.238;2022-07-17T00:51:01;3.20;;;2.20;;
56581;SDS011;42463;52.214;21.238;2022-07-17T00:53:27;4.70;;;2.10;;
56581;SDS011;42463;52.214;21.238;2022-07-17T00:55:56;3.80;;;1.90;;
56581;SDS011;42463;52.214;21.238;2022-07-17T00:58:28;5.70;;;2.40;;
56581;SDS011;42463;52.214;21.238;2022-07-17T01:04:16;4.20;;;2.30;;
56581;SDS011;42463;52.214;21.238;2022-07-17T01:07:07;6.10;;;2.10;;
56581;SDS011;42463;52.214;21.238;2022-07-17T01:09:40;4.90;;;1.80;;
56581;SDS011;42463;52.214;21.238;2022-07-17T01:12:17;4.60;;;2.20;;
56581;SDS011;42463;52.214;21.238;2022-07-17T01:15:06;5.40;;;2.30;;
56581;SDS011;42463;52.214;21.238;2022-07-17T01:17:41;4.80;;;1.80;;
56581;SDS011;42463;52.214;21.238;2022-07-17T01:20:10;5.50;;;2.10;;
56581;SDS011;42463;52.214;21.238;2022-07-17T01:22:42;3.40;;;2.10;;
56581;SDS011;42463;52.214;21.238;2022-07-17T01:27:37;3.90;;;2.00;;
56581;SDS011;42463;52.214;21.238;2022-07-17T01:30:17;2.70;;;1.80;;
56581;SDS011;42463;52.214;21.238;2022-07-17T01:32:44;4.40;;;1.60;;
56581;SDS011;42463;52.214;21.238;2022-07-17T01:35:11;4.10;;;2.20;;
56581;SDS011;42463;52.214;21.238;2022-07-17T01:38:00;4.00;;;1.90;;
56581;SDS011;42463;52.214;21.238;2022-07-17T01:40:52;2.90;;;2.10;;
56581;SDS011;42463;52.214;21.238;2022-07-17T01:43:44;3.80;;;2.00;;
56581;SDS011;42463;52.214;21.238;2022-07-17T01:46:43;7.60;;;1.80;;
56581;SDS011;42463;52.214;21.238;2022-07-17T01:49:42;5.00;;;1.80;;
56581;SDS011;42463;52.214;21.238;2022-07-17T01:52:26;2.20;;;1.80;;
56581;SDS011;42463;52.214;21.238;2022-07-17T01:55:03;2.10;;;1.70;;
56581;SDS011;42463;52.214;21.238;2022-07-17T01:57:35;4.10;;;1.90;;
56581;SDS011;42463;52.214;21.238;2022-07-17T02:00:15;4.00;;;1.70;;
56581;SDS011;42463;52.214;21.238;2022-07-17T02:02:41;3.30;;;1.80;;
56581;SDS011;42463;52.214;21.238;2022-07-17T02:05:08;3.30;;;2.10;;
56581;SDS011;42463;52.214;21.238;2022-07-17T02:07:34;3.60;;;1.90;;
56581;SDS011;42463;52.214;21.238;2022-07-17T02:10:03;2.70;;;1.80;;
56581;SDS011;42463;52.214;21.238;2022-07-17T02:12:30;2.90;;;1.80;;
56581;SDS011;42463;52.214;21.238;2022-07-17T02:14:57;3.10;;;2.20;;
56581;SDS011;42463;52.214;21.238;2022-07-17T02:17:22;4.40;;;2.00;;
56581;SDS011;42463;52.214;21.238;2022-07-17T02:19:49;4.20;;;2.00;;
56581;SDS011;42463;52.214;21.238;2022-07-17T02:22:15;3.30;;;1.90;;
56581;SDS011;42463;52.214;21.238;2022-07-17T02:24:41;4.50;;;1.80;;
56581;SDS011;42463;52.214;21.238;2022-07-17T02:27:07;3.10;;;1.90;;
56581;SDS011;42463;52.214;21.238;2022-07-17T02:29:34;3.90;;;1.90;;
56581;SDS011;42463;52.214;21.238;2022-07-17T02:32:00;3.10;;;2.00;;
56581;SDS011;42463;52.214;21.238;2022-07-17T02:34:27;2.80;;;1.90;;
56581;SDS011;42463;52.214;21.238;2022-07-17T02:36:53;5.00;;;2.40;;
56581;SDS011;42463;52.214;21.238;2022-07-17T02:39:19;4.10;;;2.00;;
56581;SDS011;42463;52.214;21.238;2022-07-17T02:41:45;5.20;;;2.40;;
56581;SDS011;42463;52.214;21.238;2022-07-17T02:44:11;3.60;;;2.20;;
56581;SDS011;42463;52.214;21.238;2022-07-17T02:46:37;6.00;;;2.50;;
56581;SDS011;42463;52.214;21.238;2022-07-17T02:49:04;4.70;;;2.30;;
56581;SDS011;42463;52.214;21.238;2022-07-17T02:51:30;4.80;;;2.60;;
56581;SDS011;42463;52.214;21.238;2022-07-17T02:53:56;9.00;;;3.00;;
56581;SDS011;42463;52.214;21.238;2022-07-17T02:56:22;4.70;;;2.50;;
56581;SDS011;42463;52.214;21.238;2022-07-17T02:58:49;5.30;;;2.70;;
56581;SDS011;42463;52.214;21.238;2022-07-17T03:01:15;6.80;;;3.40;;
56581;SDS011;42463;52.214;21.238;2022-07-17T03:03:41;5.40;;;3.10;;
56581;SDS011;42463;52.214;21.238;2022-07-17T03:06:07;4.80;;;3.10;;
56581;SDS011;42463;52.214;21.238;2022-07-17T03:08:33;6.10;;;3.20;;
56581;SDS011;42463;52.214;21.238;2022-07-17T03:11:00;7.00;;;3.30;;
56581;SDS011;42463;52.214;21.238;2022-07-17T03:13:26;7.20;;;3.40;;
56581;SDS011;42463;52.214;21.238;2022-07-17T03:15:53;5.00;;;3.40;;
56581;SDS011;42463;52.214;21.238;2022-07-17T03:18:19;6.50;;;3.30;;
56581;SDS011;42463;52.214;21.238;2022-07-17T03:20:46;6.70;;;3.40;;
56581;SDS011;42463;52.214;21.238;2022-07-17T03:23:12;6.80;;;3.00;;
56581;SDS011;42463;52.214;21.238;2022-07-17T03:25:39;7.20;;;3.70;;
56581;SDS011;42463;52.214;21.238;2022-07-17T03:28:05;6.70;;;3.10;;
56581;SDS011;42463;52.214;21.238;2022-07-17T03:30:31;5.00;;;3.30;;
56581;SDS011;42463;52.214;21.238;2022-07-17T03:32:57;7.60;;;3.60;;
56581;SDS011;42463;52.214;21.238;2022-07-17T03:35:23;5.30;;;3.00;;
56581;SDS011;42463;52.214;21.238;2022-07-17T03:37:49;6.10;;;3.20;;
56581;SDS011;42463;52.214;21.238;2022-07-17T03:40:16;6.60;;;3.00;;
56581;SDS011;42463;52.214;21.238;2022-07-17T03:42:42;6.50;;;3.10;;
56581;SDS011;42463;52.214;21.238;2022-07-17T03:45:10;6.60;;;3.10;;
56581;SDS011;42463;52.214;21.238;2022-07-17T03:47:37;6.00;;;3.10;;
56581;SDS011;42463;52.214;21.238;2022-07-17T03:50:03;4.90;;;3.20;;
56581;SDS011;42463;52.214;21.238;2022-07-17T03:52:31;6.30;;;3.20;;
56581;SDS011;42463;52.214;21.238;2022-07-17T03:54:57;8.00;;;3.20;;
56581;SDS011;42463;52.214;21.238;2022-07-17T03:57:23;6.00;;;3.00;;
56581;SDS011;42463;52.214;21.238;2022-07-17T03:59:49;9.20;;;3.20;;
56581;SDS011;42463;52.214;21.238;2022-07-17T04:02:15;6.80;;;3.20;;
56581;SDS011;42463;52.214;21.238;2022-07-17T04:04:42;5.20;;;3.20;;
56581;SDS011;42463;52.214;21.238;2022-07-17T04:07:08;8.40;;;3.10;;
56581;SDS011;42463;52.214;21.238;2022-07-17T04:09:50;4.50;;;2.80;;
56581;SDS011;42463;52.214;21.238;2022-07-17T04:12:20;6.00;;;3.60;;
56581;SDS011;42463;52.214;21.238;2022-07-17T04:14:46;5.60;;;3.00;;
56581;SDS011;42463;52.214;21.238;2022-07-17T04:17:13;5.70;;;3.20;;
56581;SDS011;42463;52.214;21.238;2022-07-17T04:19:39;4.40;;;3.10;;
56581;SDS011;42463;52.214;21.238;2022-07-17T04:22:05;4.40;;;2.80;;
56581;SDS011;42463;52.214;21.238;2022-07-17T04:24:31;5.10;;;2.90;;
56581;SDS011;42463;52.214;21.238;2022-07-17T04:26:57;6.10;;;2.80;;
56581;SDS011;42463;52.214;21.238;2022-07-17T04:29:24;4.20;;;2.60;;
56581;SDS011;42463;52.214;21.238;2022-07-17T04:31:50;5.00;;;2.60;;
56581;SDS011;42463;52.214;21.238;2022-07-17T04:34:16;5.50;;;2.80;;
56581;SDS011;42463;52.214;21.238;2022-07-17T04:36:42;4.80;;;2.30;;
56581;SDS011;42463;52.214;21.238;2022-07-17T04:39:08;5.70;;;2.80;;
56581;SDS011;42463;52.214;21.238;2022-07-17T04:41:34;5.10;;;2.80;;
56581;SDS011;42463;52.214;21.238;2022-07-17T04:44:00;5.00;;;2.70;;
56581;SDS011;42463;52.214;21.238;2022-07-17T04:46:29;4.20;;;2.60;;
56581;SDS011;42463;52.214;21.238;2022-07-17T04:48:55;5.00;;;2.60;;
56581;SDS011;42463;52.214;21.238;2022-07-17T04:51:21;5.20;;;2.60;;
56581;SDS011;42463;52.214;21.238;2022-07-17T04:53:47;3.90;;;2.90;;
56581;SDS011;42463;52.214;21.238;2022-07-17T04:56:15;3.40;;;2.40;;
56581;SDS011;42463;52.214;21.238;2022-07-17T04:58:42;4.20;;;2.60;;
56581;SDS011;42463;52.214;21.238;2022-07-17T05:01:09;5.20;;;2.70;;
56581;SDS011;42463;52.214;21.238;2022-07-17T05:03:35;5.50;;;2.60;;
56581;SDS011;42463;52.214;21.238;2022-07-17T05:06:02;5.30;;;3.40;;
56581;SDS011;42463;52.214;21.238;2022-07-17T05:08:29;8.70;;;3.90;;
56581;SDS011;42463;52.214;21.238;2022-07-17T05:10:55;3.90;;;2.70;;
56581;SDS011;42463;52.214;21.238;2022-07-17T05:13:21;4.70;;;3.10;;
56581;SDS011;42463;52.214;21.238;2022-07-17T05:15:48;4.90;;;3.80;;
56581;SDS011;42463;52.214;21.238;2022-07-17T05:18:15;8.00;;;2.80;;
56581;SDS011;42463;52.214;21.238;2022-07-17T05:20:42;4.10;;;2.80;;
56581;SDS011;42463;52.214;21.238;2022-07-17T05:23:08;3.90;;;3.40;;
56581;SDS011;42463;52.214;21.238;2022-07-17T05:25:34;6.10;;;3.30;;
56581;SDS011;42463;52.214;21.238;2022-07-17T05:28:00;4.10;;;3.10;;
56581;SDS011;42463;52.214;21.238;2022-07-17T05:30:26;7.10;;;2.90;;
56581;SDS011;42463;52.214;21.238;2022-07-17T05:32:53;5.40;;;3.20;;
56581;SDS011;42463;52.214;21.238;2022-07-17T05:35:19;3.90;;;3.20;;
56581;SDS011;42463;52.214;21.238;2022-07-17T05:37:45;4.80;;;3.30;;
56581;SDS011;42463;52.214;21.238;2022-07-17T05:40:12;5.60;;;3.70;;
56581;SDS011;42463;52.214;21.238;2022-07-17T05:42:38;4.90;;;3.30;;
56581;SDS011;42463;52.214;21.238;2022-07-17T05:45:06;5.30;;;3.50;;
56581;SDS011;42463;52.214;21.238;2022-07-17T05:47:32;6.50;;;3.60;;
56581;SDS011;42463;52.214;21.238;2022-07-17T05:49:59;9.00;;;3.60;;
56581;SDS011;42463;52.214;21.238;2022-07-17T05:52:25;6.90;;;3.80;;
56581;SDS011;42463;52.214;21.238;2022-07-17T05:54:51;3.80;;;3.30;;
56581;SDS011;42463;52.214;21.238;2022-07-17T05:57:17;4.50;;;3.70;;
56581;SDS011;42463;52.214;21.238;2022-07-17T05:59:43;4.60;;;3.50;;
56581;SDS011;42463;52.214;21.238;2022-07-17T06:02:10;5.80;;;3.50;;
56581;SDS011;42463;52.214;21.238;2022-07-17T06:04:36;4.90;;;3.30;;
56581;SDS011;42463;52.214;21.238;2022-07-17T06:07:03;6.70;;;3.50;;
56581;SDS011;42463;52.214;21.238;2022-07-17T06:09:29;8.80;;;3.20;;
56581;SDS011;42463;52.214;21.238;2022-07-17T06:11:56;4.90;;;3.20;;
56581;SDS011;42463;52.214;21.238;2022-07-17T06:14:22;4.10;;;3.00;;
56581;SDS011;42463;52.214;21.238;2022-07-17T06:16:48;7.10;;;2.70;;
56581;SDS011;42463;52.214;21.238;2022-07-17T06:19:15;5.50;;;2.50;;
56581;SDS011;42463;52.214;21.238;2022-07-17T06:21:41;6.80;;;2.80;;
56581;SDS011;42463;52.214;21.238;2022-07-17T06:24:07;6.10;;;2.70;;
56581;SDS011;42463;52.214;21.238;2022-07-17T06:26:33;5.10;;;2.70;;
56581;SDS011;42463;52.214;21.238;2022-07-17T06:28:59;3.20;;;2.50;;
56581;SDS011;42463;52.214;21.238;2022-07-17T06:31:25;3.80;;;2.60;;
56581;SDS011;42463;52.214;21.238;2022-07-17T06:33:52;5.80;;;2.40;;
56581;SDS011;42463;52.214;21.238;2022-07-17T06:36:18;5.60;;;2.10;;
56581;SDS011;42463;52.214;21.238;2022-07-17T06:38:45;3.60;;;2.40;;
56581;SDS011;42463;52.214;21.238;2022-07-17T06:41:11;6.30;;;2.10;;
56581;SDS011;42463;52.214;21.238;2022-07-17T06:43:37;2.70;;;2.00;;
56581;SDS011;42463;52.214;21.238;2022-07-17T06:46:03;4.20;;;2.10;;
56581;SDS011;42463;52.214;21.238;2022-07-17T06:48:30;4.00;;;2.10;;
56581;SDS011;42463;52.214;21.238;2022-07-17T06:50:56;4.70;;;2.00;;
56581;SDS011;42463;52.214;21.238;2022-07-17T06:53:25;3.60;;;2.10;;
56581;SDS011;42463;52.214;21.238;2022-07-17T06:55:51;4.20;;;2.10;;
56581;SDS011;42463;52.214;21.238;2022-07-17T06:58:17;5.90;;;2.00;;
56581;SDS011;42463;52.214;21.238;2022-07-17T07:00:43;4.10;;;2.10;;
56581;SDS011;42463;52.214;21.238;2022-07-17T07:03:20;6.80;;;2.30;;
56581;SDS011;42463;52.214;21.238;2022-07-17T07:05:51;2.20;;;1.90;;
56581;SDS011;42463;52.214;21.238;2022-07-17T07:08:18;5.30;;;2.70;;
56581;SDS011;42463;52.214;21.238;2022-07-17T07:10:44;5.90;;;2.20;;
56581;SDS011;42463;52.214;21.238;2022-07-17T07:13:13;6.80;;;2.10;;
56581;SDS011;42463;52.214;21.238;2022-07-17T07:15:39;3.20;;;2.40;;
56581;SDS011;42463;52.214;21.238;2022-07-17T07:18:05;3.00;;;2.20;;
56581;SDS011;42463;52.214;21.238;2022-07-17T07:20:32;3.80;;;2.20;;
56581;SDS011;42463;52.214;21.238;2022-07-17T07:22:59;3.70;;;1.90;;
56581;SDS011;42463;52.214;21.238;2022-07-17T07:25:26;3.60;;;2.10;;
56581;SDS011;42463;52.214;21.238;2022-07-17T07:27:53;5.00;;;2.20;;
56581;SDS011;42463;52.214;21.238;2022-07-17T07:30:19;3.20;;;1.90;;
56581;SDS011;42463;52.214;21.238;2022-07-17T07:32:46;6.70;;;2.20;;
56581;SDS011;42463;52.214;21.238;2022-07-17T07:35:12;8.70;;;2.60;;
56581;SDS011;42463;52.214;21.238;2022-07-17T07:37:43;6.30;;;2.10;;
56581;SDS011;42463;52.214;21.238;2022-07-17T07:40:12;3.30;;;2.40;;
56581;SDS011;42463;52.214;21.238;2022-07-17T07:42:38;3.30;;;2.60;;
56581;SDS011;42463;52.214;21.238;2022-07-17T07:45:05;3.40;;;2.00;;
56581;SDS011;42463;52.214;21.238;2022-07-17T07:47:33;4.50;;;2.10;;
56581;SDS011;42463;52.214;21.238;2022-07-17T07:50:08;6.80;;;2.90;;
56581;SDS011;42463;52.214;21.238;2022-07-17T07:52:35;5.70;;;2.60;;
56581;SDS011;42463;52.214;21.238;2022-07-17T07:55:06;4.90;;;2.70;;
56581;SDS011;42463;52.214;21.238;2022-07-17T07:57:33;4.50;;;3.00;;
56581;SDS011;42463;52.214;21.238;2022-07-17T08:00:00;5.10;;;2.60;;
56581;SDS011;42463;52.214;21.238;2022-07-17T08:02:36;5.50;;;3.30;;
56581;SDS011;42463;52.214;21.238;2022-07-17T08:05:03;5.60;;;3.20;;
56581;SDS011;42463;52.214;21.238;2022-07-17T08:07:30;6.00;;;3.30;;
56581;SDS011;42463;52.214;21.238;2022-07-17T08:09:59;3.30;;;2.90;;
56581;SDS011;42463;52.214;21.238;2022-07-17T08:12:25;7.00;;;3.40;;
56581;SDS011;42463;52.214;21.238;2022-07-17T08:14:51;5.40;;;3.70;;
56581;SDS011;42463;52.214;21.238;2022-07-17T08:17:18;5.90;;;3.90;;
56581;SDS011;42463;52.214;21.238;2022-07-17T08:19:44;5.80;;;3.80;;
56581;SDS011;42463;52.214;21.238;2022-07-17T08:22:10;4.70;;;3.50;;
56581;SDS011;42463;52.214;21.238;2022-07-17T08:24:37;5.30;;;3.60;;
56581;SDS011;42463;52.214;21.238;2022-07-17T08:27:03;7.00;;;3.80;;
56581;SDS011;42463;52.214;21.238;2022-07-17T08:29:29;5.60;;;3.70;;
56581;SDS011;42463;52.214;21.238;2022-07-17T08:31:55;8.50;;;4.40;;
56581;SDS011;42463;52.214;21.238;2022-07-17T08:34:22;4.70;;;3.60;;
56581;SDS011;42463;52.214;21.238;2022-07-17T08:36:48;6.10;;;3.50;;
56581;SDS011;42463;52.214;21.238;2022-07-17T08:39:16;3.70;;;3.30;;
56581;SDS011;42463;52.214;21.238;2022-07-17T08:41:42;3.50;;;2.60;;
56581;SDS011;42463;52.214;21.238;2022-07-17T08:44:09;6.00;;;3.10;;
56581;SDS011;42463;52.214;21.238;2022-07-17T08:46:36;4.60;;;3.10;;
56581;SDS011;42463;52.214;21.238;2022-07-17T08:49:03;7.10;;;3.20;;
56581;SDS011;42463;52.214;21.238;2022-07-17T08:51:30;5.10;;;2.90;;
56581;SDS011;42463;52.214;21.238;2022-07-17T08:53:57;5.70;;;3.30;;
56581;SDS011;42463;52.214;21.238;2022-07-17T08:56:24;4.60;;;3.30;;
56581;SDS011;42463;52.214;21.238;2022-07-17T08:58:50;6.00;;;3.50;;
56581;SDS011;42463;52.214;21.238;2022-07-17T09:01:19;6.50;;;4.20;;
56581;SDS011;42463;52.214;21.238;2022-07-17T09:03:57;5.20;;;2.90;;
56581;SDS011;42463;52.214;21.238;2022-07-17T09:06:29;7.00;;;2.90;;
56581;SDS011;42463;52.214;21.238;2022-07-17T09:09:06;3.80;;;2.30;;
56581;SDS011;42463;52.214;21.238;2022-07-17T09:11:44;3.90;;;2.60;;
56581;SDS011;42463;52.214;21.238;2022-07-17T09:14:13;3.00;;;2.30;;
56581;SDS011;42463;52.214;21.238;2022-07-17T09:16:50;4.40;;;2.60;;
56581;SDS011;42463;52.214;21.238;2022-07-17T09:19:29;3.60;;;2.20;;
56581;SDS011;42463;52.214;21.238;2022-07-17T09:22:09;4.90;;;2.40;;
56581;SDS011;42463;52.214;21.238;2022-07-17T09:24:46;7.80;;;2.60;;
56581;SDS011;42463;52.214;21.238;2022-07-17T09:27:17;6.90;;;2.60;;
56581;SDS011;42463;52.214;21.238;2022-07-17T09:29:56;3.10;;;2.40;;
56581;SDS011;42463;52.214;21.238;2022-07-17T09:32:25;2.60;;;2.40;;
56581;SDS011;42463;52.214;21.238;2022-07-17T09:34:53;3.50;;;2.30;;
56581;SDS011;42463;52.214;21.238;2022-07-17T09:37:22;3.80;;;2.40;;
56581;SDS011;42463;52.214;21.238;2022-07-17T09:39:50;3.10;;;2.20;;
56581;SDS011;42463;52.214;21.238;2022-07-17T09:42:25;2.60;;;2.40;;
56581;SDS011;42463;52.214;21.238;2022-07-17T09:45:00;5.90;;;3.10;;
56581;SDS011;42463;52.214;21.238;2022-07-17T09:47:29;2.90;;;2.60;;
56581;SDS011;42463;52.214;21.238;2022-07-17T09:49:57;4.60;;;2.50;;
56581;SDS011;42463;52.214;21.238;2022-07-17T09:52:26;6.80;;;2.40;;
56581;SDS011;42463;52.214;21.238;2022-07-17T09:54:54;3.80;;;2.10;;
56581;SDS011;42463;52.214;21.238;2022-07-17T09:57:21;2.30;;;1.70;;
56581;SDS011;42463;52.214;21.238;2022-07-17T09:59:50;3.70;;;1.90;;
56581;SDS011;42463;52.214;21.238;2022-07-17T10:02:16;3.30;;;1.90;;
56581;SDS011;42463;52.214;21.238;2022-07-17T10:04:45;3.10;;;1.60;;
56581;SDS011;42463;52.214;21.238;2022-07-17T10:07:12;3.40;;;1.60;;
56581;SDS011;42463;52.214;21.238;2022-07-17T10:09:39;3.40;;;1.40;;
56581;SDS011;42463;52.214;21.238;2022-07-17T10:12:05;2.40;;;1.60;;
56581;SDS011;42463;52.214;21.238;2022-07-17T10:14:33;4.40;;;1.50;;
56581;SDS011;42463;52.214;21.238;2022-07-17T10:17:08;3.90;;;1.50;;
56581;SDS011;42463;52.214;21.238;2022-07-17T10:19:46;5.40;;;1.40;;
56581;SDS011;42463;52.214;21.238;2022-07-17T10:22:13;3.60;;;1.40;;
56581;SDS011;42463;52.214;21.238;2022-07-17T10:24:47;3.30;;;1.20;;
56581;SDS011;42463;52.214;21.238;2022-07-17T10:27:21;2.60;;;1.20;;
56581;SDS011;42463;52.214;21.238;2022-07-17T10:29:57;3.70;;;1.30;;
56581;SDS011;42463;52.214;21.238;2022-07-17T10:32:25;3.00;;;1.20;;
56581;SDS011;42463;52.214;21.238;2022-07-17T10:34:57;3.10;;;1.20;;
56581;SDS011;42463;52.214;21.238;2022-07-17T10:37:26;3.60;;;1.30;;
56581;SDS011;42463;52.214;21.238;2022-07-17T10:39:58;5.40;;;1.00;;
56581;SDS011;42463;52.214;21.238;2022-07-17T10:42:54;2.10;;;1.10;;
56581;SDS011;42463;52.214;21.238;2022-07-17T10:45:22;2.60;;;1.20;;
56581;SDS011;42463;52.214;21.238;2022-07-17T10:47:52;3.60;;;1.30;;
56581;SDS011;42463;52.214;21.238;2022-07-17T10:50:22;1.50;;;1.00;;
56581;SDS011;42463;52.214;21.238;2022-07-17T10:53:07;4.30;;;1.20;;
56581;SDS011;42463;52.214;21.238;2022-07-17T10:55:37;2.90;;;1.40;;
56581;SDS011;42463;52.214;21.238;2022-07-17T10:58:12;1.80;;;1.40;;
56581;SDS011;42463;52.214;21.238;2022-07-17T11:00:39;2.90;;;1.40;;
56581;SDS011;42463;52.214;21.238;2022-07-17T11:03:12;3.30;;;1.40;;
56581;SDS011;42463;52.214;21.238;2022-07-17T11:05:38;1.70;;;1.30;;
56581;SDS011;42463;52.214;21.238;2022-07-17T11:08:05;4.30;;;1.60;;
56581;SDS011;42463;52.214;21.238;2022-07-17T11:10:35;3.80;;;1.30;;
56581;SDS011;42463;52.214;21.238;2022-07-17T11:13:10;2.80;;;1.10;;
56581;SDS011;42463;52.214;21.238;2022-07-17T11:15:44;3.60;;;1.00;;
56581;SDS011;42463;52.214;21.238;2022-07-17T11:18:16;4.40;;;1.20;;
56581;SDS011;42463;52.214;21.238;2022-07-17T11:20:52;4.10;;;1.00;;
56581;SDS011;42463;52.214;21.238;2022-07-17T11:23:20;2.90;;;1.20;;
56581;SDS011;42463;52.214;21.238;2022-07-17T11:25:57;1.60;;;0.90;;
56581;SDS011;42463;52.214;21.238;2022-07-17T11:28:37;2.30;;;1.00;;
56581;SDS011;42463;52.214;21.238;2022-07-17T11:31:16;2.90;;;1.30;;
56581;SDS011;42463;52.214;21.238;2022-07-17T11:33:49;2.90;;;1.10;;
56581;SDS011;42463;52.214;21.238;2022-07-17T11:36:23;4.50;;;1.20;;
56581;SDS011;42463;52.214;21.238;2022-07-17T11:38:51;1.80;;;1.20;;
56581;SDS011;42463;52.214;21.238;2022-07-17T11:41:18;2.20;;;1.00;;
56581;SDS011;42463;52.214;21.238;2022-07-17T11:43:44;4.50;;;1.40;;
56581;SDS011;42463;52.214;21.238;2022-07-17T11:46:11;3.90;;;1.50;;
56581;SDS011;42463;52.214;21.238;2022-07-17T11:48:38;2.50;;;1.70;;
56581;SDS011;42463;52.214;21.238;2022-07-17T11:51:06;2.10;;;1.30;;
56581;SDS011;42463;52.214;21.238;2022-07-17T11:53:37;3.30;;;1.50;;
56581;SDS011;42463;52.214;21.238;2022-07-17T11:56:05;4.30;;;1.60;;
56581;SDS011;42463;52.214;21.238;2022-07-17T11:58:43;2.40;;;1.50;;
56581;SDS011;42463;52.214;21.238;2022-07-17T12:01:10;4.10;;;1.30;;
56581;SDS011;42463;52.214;21.238;2022-07-17T12:03:37;2.60;;;1.00;;
56581;SDS011;42463;52.214;21.238;2022-07-17T12:06:04;4.10;;;1.10;;
56581;SDS011;42463;52.214;21.238;2022-07-17T12:08:31;3.50;;;1.20;;
56581;SDS011;42463;52.214;21.238;2022-07-17T12:11:05;3.60;;;1.50;;
56581;SDS011;42463;52.214;21.238;2022-07-17T12:13:41;2.70;;;1.50;;
56581;SDS011;42463;52.214;21.238;2022-07-17T12:16:35;3.90;;;1.60;;
56581;SDS011;42463;52.214;21.238;2022-07-17T12:19:07;2.30;;;1.80;;
56581;SDS011;42463;52.214;21.238;2022-07-17T12:21:51;7.00;;;2.00;;
56581;SDS011;42463;52.214;21.238;2022-07-17T12:24:24;3.00;;;1.70;;
56581;SDS011;42463;52.214;21.238;2022-07-17T12:26:51;2.50;;;1.60;;
56581;SDS011;42463;52.214;21.238;2022-07-17T12:29:18;2.70;;;1.40;;
56581;SDS011;42463;52.214;21.238;2022-07-17T12:31:44;4.40;;;1.50;;
56581;SDS011;42463;52.214;21.238;2022-07-17T12:34:10;4.70;;;1.30;;
56581;SDS011;42463;52.214;21.238;2022-07-17T12:36:37;5.00;;;1.20;;
56581;SDS011;42463;52.214;21.238;2022-07-17T12:39:03;3.60;;;1.20;;
56581;SDS011;42463;52.214;21.238;2022-07-17T12:41:30;4.40;;;1.20;;
56581;SDS011;42463;52.214;21.238;2022-07-17T12:43:56;2.60;;;1.20;;
56581;SDS011;42463;52.214;21.238;2022-07-17T12:46:22;2.10;;;1.20;;
56581;SDS011;42463;52.214;21.238;2022-07-17T12:48:48;3.20;;;0.90;;
56581;SDS011;42463;52.214;21.238;2022-07-17T12:51:15;1.60;;;1.00;;
56581;SDS011;42463;52.214;21.238;2022-07-17T12:53:43;1.10;;;0.90;;
56581;SDS011;42463;52.214;21.238;2022-07-17T12:56:10;2.40;;;1.00;;
56581;SDS011;42463;52.214;21.238;2022-07-17T12:58:36;5.40;;;1.30;;
56581;SDS011;42463;52.214;21.238;2022-07-17T13:01:04;1.50;;;1.00;;
56581;SDS011;42463;52.214;21.238;2022-07-17T13:03:30;3.80;;;1.10;;
56581;SDS011;42463;52.214;21.238;2022-07-17T13:05:57;1.90;;;1.00;;
56581;SDS011;42463;52.214;21.238;2022-07-17T13:08:23;3.00;;;0.90;;
56581;SDS011;42463;52.214;21.238;2022-07-17T13:10:49;4.70;;;1.10;;
56581;SDS011;42463;52.214;21.238;2022-07-17T13:13:15;2.40;;;1.40;;
56581;SDS011;42463;52.214;21.238;2022-07-17T13:15:42;1.70;;;1.00;;
56581;SDS011;42463;52.214;21.238;2022-07-17T13:18:08;1.90;;;1.10;;
56581;SDS011;42463;52.214;21.238;2022-07-17T13:20:34;3.50;;;0.90;;
56581;SDS011;42463;52.214;21.238;2022-07-17T13:23:00;2.30;;;1.40;;
56581;SDS011;42463;52.214;21.238;2022-07-17T13:25:27;2.30;;;1.10;;
56581;SDS011;42463;52.214;21.238;2022-07-17T13:27:53;2.90;;;0.90;;
56581;SDS011;42463;52.214;21.238;2022-07-17T13:30:19;2.70;;;1.10;;
56581;SDS011;42463;52.214;21.238;2022-07-17T13:32:46;1.70;;;0.90;;
56581;SDS011;42463;52.214;21.238;2022-07-17T13:35:11;4.10;;;1.30;;
56581;SDS011;42463;52.214;21.238;2022-07-17T13:37:39;2.80;;;1.10;;
56581;SDS011;42463;52.214;21.238;2022-07-17T13:40:08;3.90;;;1.00;;
56581;SDS011;42463;52.214;21.238;2022-07-17T13:42:35;1.60;;;1.10;;
56581;SDS011;42463;52.214;21.238;2022-07-17T13:45:01;4.10;;;1.30;;
56581;SDS011;42463;52.214;21.238;2022-07-17T13:47:29;3.00;;;0.90;;
56581;SDS011;42463;52.214;21.238;2022-07-17T13:49:55;1.30;;;1.00;;
56581;SDS011;42463;52.214;21.238;2022-07-17T13:52:21;1.20;;;0.90;;
56581;SDS011;42463;52.214;21.238;2022-07-17T13:54:47;1.80;;;0.90;;
56581;SDS011;42463;52.214;21.238;2022-07-17T13:57:13;1.50;;;0.90;;
56581;SDS011;42463;52.214;21.238;2022-07-17T13:59:39;1.60;;;1.10;;
56581;SDS011;42463;52.214;21.238;2022-07-17T14:02:06;3.10;;;1.10;;
56581;SDS011;42463;52.214;21.238;2022-07-17T14:04:33;1.80;;;1.00;;
56581;SDS011;42463;52.214;21.238;2022-07-17T14:06:59;1.90;;;0.90;;
56581;SDS011;42463;52.214;21.238;2022-07-17T14:09:25;1.70;;;1.00;;
56581;SDS011;42463;52.214;21.238;2022-07-17T14:11:51;1.10;;;1.00;;
56581;SDS011;42463;52.214;21.238;2022-07-17T14:14:18;2.20;;;0.90;;
56581;SDS011;42463;52.214;21.238;2022-07-17T14:16:44;2.50;;;1.00;;
56581;SDS011;42463;52.214;21.238;2022-07-17T14:19:11;1.30;;;1.00;;
56581;SDS011;42463;52.214;21.238;2022-07-17T14:21:37;2.00;;;0.90;;
56581;SDS011;42463;52.214;21.238;2022-07-17T14:24:05;1.40;;;0.80;;
56581;SDS011;42463;52.214;21.238;2022-07-17T14:26:31;1.50;;;0.80;;
56581;SDS011;42463;52.214;21.238;2022-07-17T14:28:58;1.60;;;1.00;;
56581;SDS011;42463;52.214;21.238;2022-07-17T14:31:25;1.90;;;1.10;;
56581;SDS011;42463;52.214;21.238;2022-07-17T14:33:51;1.40;;;0.90;;
56581;SDS011;42463;52.214;21.238;2022-07-17T14:36:18;1.30;;;0.80;;
56581;SDS011;42463;52.214;21.238;2022-07-17T14:38:44;1.10;;;1.00;;
56581;SDS011;42463;52.214;21.238;2022-07-17T14:41:11;1.90;;;1.20;;
56581;SDS011;42463;52.214;21.238;2022-07-17T14:43:37;2.20;;;1.30;;
56581;SDS011;42463;52.214;21.238;2022-07-17T14:46:03;1.70;;;1.00;;
56581;SDS011;42463;52.214;21.238;2022-07-17T14:48:30;2.70;;;1.10;;
56581;SDS011;42463;52.214;21.238;2022-07-17T14:50:56;1.80;;;1.10;;